Time;durP1;ratioP1;P1;durP2;ratioP2;P2;SDS_P1;SDS_P2;PMS_P1;PMS_P2;Temp;Humidity;BMP_temperature;BMP_pressure;BME280_temperature;BME280_humidity;BME280_pressure;Samples;Min_cycle;Max_cycle;Signal;HPM_P1;HPM_P2
2023/11/15 10:09:50;;;;;;;1.95;1.30;;;8.80;99.90;;;;;;7580805;19;20359;-69
2023/11/15 10:12:30;;;;;;;3.05;1.23;;;8.80;99.90;;;;;;7568405;19;20020;-68
2023/11/15 10:15:05;;;;;;;3.05;1.65;;;8.90;99.90;;;;;;7540184;19;20018;-67
2023/11/15 10:17:40;;;;;;;4.72;1.70;;;9.00;99.90;;;;;;7524672;19;20014;-67
2023/11/15 10:20:22;;;;;;;6.47;1.30;;;9.00;99.90;;;;;;7518468;19;20018;-68
2023/11/15 10:22:55;;;;;;;2.00;1.08;;;9.10;99.90;;;;;;7524032;19;20025;-68
2023/11/15 10:25:28;;;;;;;;;;;9.30;99.90;;;;;;7527135;19;21530;-67
2023/11/15 10:28:03;;;;;;;2.72;1.13;;;9.60;99.90;;;;;;7588665;19;19950;-67
2023/11/15 10:30:36;;;;;;;5.80;1.45;;;10.00;99.90;;;;;;7566210;19;20010;-67
2023/11/15 10:33:11;;;;;;;2.67;0.93;;;10.10;99.90;;;;;;7573195;19;20629;-67
2023/11/15 10:35:44;;;;;;;3.83;0.70;;;10.30;99.90;;;;;;7574021;19;20044;-67
2023/11/15 10:38:20;;;;;;;3.42;1.30;;;10.50;99.90;;;;;;7578509;19;20735;-67
2023/11/15 10:40:54;;;;;;;3.78;1.02;;;10.50;99.90;;;;;;7594926;19;20018;-67
2023/11/15 10:43:27;;;;;;;6.50;1.10;;;10.40;99.90;;;;;;7581238;19;20018;-67
2023/11/15 10:46:02;;;;;;;4.35;0.90;;;10.30;99.90;;;;;;7548847;19;20014;-67
2023/11/15 10:48:38;;;;;;;3.80;1.17;;;10.30;99.90;;;;;;7522755;19;20023;-68
2023/11/15 10:51:22;;;;;;;1.48;0.75;;;10.20;99.90;;;;;;7530773;19;20678;-67
2023/11/15 10:53:56;;;;;;;3.03;1.15;;;10.20;99.90;;;;;;7521811;19;20041;-68
2023/11/15 10:56:32;;;;;;;1.95;1.00;;;10.10;99.90;;;;;;7535908;19;20014;-68
2023/11/15 10:59:05;;;;;;;5.30;1.02;;;10.00;99.90;;;;;;7511695;19;20103;-67
2023/11/15 11:01:38;;;;;;;5.07;2.28;;;10.00;99.90;;;;;;7497200;19;21538;-67
2023/11/15 11:04:15;;;;;;;3.65;1.00;;;10.00;99.90;;;;;;7502153;19;20029;-67
2023/11/15 11:07:14;;;;;;;5.65;1.30;;;9.80;99.90;;;;;;7573855;19;20025;-68
2023/11/15 11:09:57;;;;;;;3.85;1.00;;;10.00;99.90;;;;;;7568253;19;20021;-67
2023/11/15 11:12:31;;;;;;;4.03;0.88;;;10.00;99.90;;;;;;7523207;19;20022;-67
2023/11/15 11:15:16;;;;;;;3.28;0.80;;;10.00;99.90;;;;;;7533258;19;20022;-68
2023/11/15 11:18:01;;;;;;;1.80;0.98;;;10.00;99.90;;;;;;7551840;19;20018;-68
2023/11/15 11:20:35;;;;;;;;;;;10.00;99.90;;;;;;7530719;19;20018;-68
2023/11/15 11:23:22;;;;;;;4.18;1.13;;;10.00;99.90;;;;;;7504937;19;19952;-68
2023/11/15 11:26:34;;;;;;;10.55;1.60;;;10.00;99.90;;;;;;7507766;19;20019;-68
2023/11/15 11:29:07;;;;;;;5.10;1.33;;;10.10;99.90;;;;;;7543712;19;20010;-69
2023/11/15 11:31:40;;;;;;;3.30;1.00;;;10.10;99.90;;;;;;7506869;19;20037;-68
2023/11/15 11:34:18;;;;;;;7.25;1.77;;;10.10;99.90;;;;;;7530914;19;20974;-68
2023/11/15 11:36:57;;;;;;;2.15;1.10;;;10.10;99.90;;;;;;7489911;19;20296;-69
2023/11/15 11:39:45;;;;;;;4.18;1.30;;;10.10;99.90;;;;;;7530209;19;20691;-68
2023/11/15 11:42:24;;;;;;;4.28;0.73;;;10.40;99.90;;;;;;7566897;19;20033;-68
2023/11/15 11:44:57;;;;;;;5.05;1.38;;;10.80;99.90;;;;;;7559946;19;20026;-68
2023/11/15 11:47:29;;;;;;;3.00;1.20;;;13.30;99.90;;;;;;7520856;19;21153;-68
2023/11/15 11:50:03;;;;;;;4.38;1.08;;;14.80;99.90;;;;;;7547215;19;20619;-68
2023/11/15 11:52:36;;;;;;;5.15;1.20;;;15.10;99.90;;;;;;7501566;19;20013;-68
2023/11/15 11:55:08;;;;;;;3.85;1.13;;;13.90;99.90;;;;;;7509131;19;20583;-68
2023/11/15 11:57:40;;;;;;;3.50;1.00;;;12.60;99.90;;;;;;7504936;19;20019;-68
2023/11/15 12:00:15;;;;;;;3.50;1.00;;;11.80;99.90;;;;;;7528975;19;21258;-68
2023/11/15 12:02:53;;;;;;;1.92;0.82;;;11.10;99.90;;;;;;7539281;19;20021;-71
2023/11/15 12:05:36;;;;;;;5.90;2.40;;;10.60;99.90;;;;;;7506473;19;20018;-68
2023/11/15 12:08:14;;;;;;;2.83;0.98;;;10.10;99.90;;;;;;7511699;19;20022;-71
2023/11/15 12:10:47;;;;;;;4.53;1.65;;;9.70;99.90;;;;;;7497727;19;21535;-70
2023/11/15 12:13:20;;;;;;;4.87;1.50;;;9.60;99.90;;;;;;7549104;19;20014;-69
2023/11/15 12:15:53;;;;;;;5.65;1.05;;;9.80;99.90;;;;;;7516102;19;20014;-70
2023/11/15 12:18:25;;;;;;;7.43;1.25;;;10.10;99.90;;;;;;7553626;19;20034;-70
2023/11/15 12:20:57;;;;;;;4.10;1.20;;;10.10;99.90;;;;;;7444663;19;21762;-70
2023/11/15 12:23:31;;;;;;;7.18;1.40;;;9.90;99.90;;;;;;7506202;19;20019;-71
2023/11/15 12:26:05;;;;;;;6.78;1.40;;;9.90;99.90;;;;;;7520940;19;20018;-70
2023/11/15 12:28:38;;;;;;;5.22;1.33;;;10.00;99.90;;;;;;7554934;19;20078;-70
2023/11/15 12:31:13;;;;;;;4.15;1.10;;;10.10;99.90;;;;;;7494581;19;20733;-70
2023/11/15 12:33:46;;;;;;;6.80;1.75;;;10.00;99.90;;;;;;7515051;19;20047;-70
2023/11/15 12:36:21;;;;;;;3.25;1.42;;;10.00;99.90;;;;;;7506979;19;20025;-69
2023/11/15 12:38:55;;;;;;;7.60;1.40;;;9.70;99.90;;;;;;7500945;19;20581;-70
2023/11/15 12:41:27;;;;;;;6.00;1.45;;;9.60;99.90;;;;;;7538801;19;20526;-71
2023/11/15 12:44:01;;;;;;;1.92;1.20;;;9.60;99.90;;;;;;7509384;19;20777;-70
2023/11/15 12:46:34;;;;;;;6.03;1.50;;;9.90;99.90;;;;;;7524753;19;20022;-70
2023/11/15 12:49:14;;;;;;;7.80;1.30;;;10.40;99.90;;;;;;7486276;19;20010;-70
2023/11/15 12:51:48;;;;;;;4.25;0.93;;;10.30;99.90;;;;;;7514315;19;20970;-70
2023/11/15 12:54:22;;;;;;;5.22;1.27;;;10.30;99.90;;;;;;7488763;19;20022;-71
2023/11/15 12:57:11;;;;;;;3.28;1.10;;;10.30;99.90;;;;;;7476324;19;20015;-71
2023/11/15 12:59:49;;;;;;;4.72;1.40;;;10.50;99.90;;;;;;7512250;19;20054;-71
2023/11/15 13:02:26;;;;;;;3.38;1.20;;;11.10;99.90;;;;;;7490506;19;20018;-70
2023/11/15 13:05:03;;;;;;;4.25;1.10;;;12.10;99.90;;;;;;7450855;19;20018;-69
2023/11/15 13:07:36;;;;;;;6.70;1.25;;;11.60;99.90;;;;;;7548178;19;20103;-69
2023/11/15 13:10:10;;;;;;;6.75;1.30;;;11.40;99.90;;;;;;7497542;19;21390;-69
2023/11/15 13:12:43;;;;;;;3.58;1.20;;;11.30;99.90;;;;;;7519867;19;20010;-69
2023/11/15 13:15:17;;;;;;;1.85;0.85;;;11.50;99.90;;;;;;7473147;19;20069;-69
2023/11/15 13:17:51;;;;;;;1.48;0.95;;;11.40;99.90;;;;;;7492529;19;20021;-69
2023/11/15 13:20:23;;;;;;;2.67;1.20;;;11.20;99.90;;;;;;7506154;19;20017;-69
2023/11/15 13:22:56;;;;;;;2.47;1.00;;;11.20;99.90;;;;;;7481224;19;20014;-68
2023/11/15 13:25:28;;;;;;;2.40;1.10;;;11.70;99.90;;;;;;7500124;19;20014;-69
2023/11/15 13:28:03;;;;;;;4.45;1.10;;;11.80;99.90;;;;;;7496477;19;20048;-69
2023/11/15 13:30:39;;;;;;;5.85;1.10;;;11.20;99.90;;;;;;7486351;19;20044;-69
2023/11/15 13:33:11;;;;;;;4.50;1.00;;;11.20;99.90;;;;;;7485625;19;20018;-69
2023/11/15 13:35:44;;;;;;;2.40;0.90;;;11.10;99.90;;;;;;7548990;19;20030;-69
2023/11/15 13:38:17;;;;;;;3.05;1.10;;;11.50;99.90;;;;;;7504406;19;20019;-68
2023/11/15 13:40:50;;;;;;;1.95;1.25;;;12.40;99.90;;;;;;7527525;19;21853;-71
2023/11/15 13:43:23;;;;;;;5.97;1.02;;;12.50;99.90;;;;;;7538385;19;20023;-69
2023/11/15 13:45:55;;;;;;;3.17;1.05;;;12.10;99.90;;;;;;7489055;19;20050;-68
2023/11/15 13:48:28;;;;;;;3.90;1.00;;;11.80;99.90;;;;;;7486169;19;20022;-69
2023/11/15 13:51:00;;;;;;;2.38;1.08;;;11.70;99.90;;;;;;7510723;19;20383;-69
2023/11/15 13:53:35;;;;;;;6.22;1.42;;;12.30;99.90;;;;;;7463396;19;20014;-69
2023/11/15 13:56:08;;;;;;;3.65;1.08;;;12.30;99.90;;;;;;7480102;19;22426;-69
2023/11/15 13:58:41;;;;;;;4.57;1.27;;;11.50;99.90;;;;;;7496467;19;20114;-69
2023/11/15 14:01:13;;;;;;;3.03;1.10;;;11.20;99.90;;;;;;7497967;19;20014;-70
2023/11/15 14:03:46;;;;;;;4.20;0.90;;;11.40;99.90;;;;;;7482436;19;20423;-70
2023/11/15 14:06:19;;;;;;;5.57;1.00;;;11.00;99.90;;;;;;7449974;19;20019;-68
2023/11/15 14:08:51;;;;;;;3.58;0.90;;;11.00;99.90;;;;;;7489180;19;20025;-70
2023/11/15 14:11:34;;;;;;;4.05;1.20;;;10.80;99.90;;;;;;7521330;19;20046;-68
2023/11/15 14:14:06;;;;;;;5.55;1.08;;;10.40;99.90;;;;;;7475375;19;20018;-68
2023/11/15 14:16:39;;;;;;;1.95;1.58;;;10.20;99.90;;;;;;7489821;19;21344;-68
2023/11/15 14:19:12;;;;;;;3.35;1.63;;;11.50;99.90;;;;;;7454220;19;20610;-72
2023/11/15 14:21:44;;;;;;;6.10;1.55;;;14.30;99.90;;;;;;7453835;19;20011;-70
2023/11/15 14:24:18;;;;;;;2.55;1.60;;;16.70;99.90;;;;;;7510411;19;20018;-71
2023/11/15 14:26:50;;;;;;;;;;;17.90;99.90;;;;;;7473820;19;20018;-69
2023/11/15 14:29:23;;;;;;;2.10;1.20;;;18.20;99.30;;;;;;7444054;19;19919;-72
2023/11/15 14:31:56;;;;;;;2.13;1.20;;;17.80;96.30;;;;;;7467627;19;20575;-72
2023/11/15 14:34:30;;;;;;;5.80;1.77;;;17.80;97.20;;;;;;7501914;19;20078;-72
2023/11/15 14:37:02;;;;;;;3.53;1.20;;;17.70;99.90;;;;;;7445264;19;20019;-71
2023/11/15 14:39:35;;;;;;;4.60;1.33;;;16.70;96.70;;;;;;7480424;19;20015;-71
2023/11/15 14:42:07;;;;;;;3.60;1.40;;;15.30;97.50;;;;;;7514226;19;20018;-70
2023/11/15 14:44:40;;;;;;;2.22;1.52;;;14.90;99.20;;;;;;7444733;19;20015;-71
2023/11/15 14:47:13;;;;;;;2.67;1.40;;;15.60;98.30;;;;;;7480873;19;20651;-70
2023/11/15 14:49:47;;;;;;;3.40;1.42;;;15.10;98.00;;;;;;7478888;19;20106;-70
2023/11/15 14:52:21;;;;;;;5.03;1.67;;;13.90;99.90;;;;;;7478975;19;23817;-71
2023/11/15 14:55:03;;;;;;;4.82;1.60;;;12.80;99.90;;;;;;7523184;19;20025;-70
2023/11/15 14:57:38;;;;;;;4.05;1.02;;;12.20;99.90;;;;;;7523190;19;20010;-73
2023/11/15 15:00:16;;;;;;;7.28;2.10;;;11.50;99.90;;;;;;7419172;19;20015;-69
2023/11/15 15:02:49;;;;;;;8.98;1.88;;;11.20;99.90;;;;;;7484993;19;20041;-70
2023/11/15 15:05:23;;;;;;;5.90;2.23;;;11.00;99.90;;;;;;7470921;19;20015;-70
2023/11/15 15:07:56;;;;;;;5.72;2.25;;;10.90;99.90;;;;;;7507548;19;20807;-72
2023/11/15 15:10:28;;;;;;;6.53;1.58;;;10.80;99.90;;;;;;7505618;19;20060;-70
2023/11/15 15:13:00;;;;;;;7.40;2.45;;;10.70;99.90;;;;;;7504148;19;20014;-71
2023/11/15 15:15:37;;;;;;;7.53;3.28;;;10.70;99.90;;;;;;7455586;19;20555;-70
2023/11/15 15:18:10;;;;;;;4.50;1.55;;;10.50;99.90;;;;;;7430896;19;21095;-70
2023/11/15 15:20:53;;;;;;;4.67;1.50;;;10.40;99.90;;;;;;7506272;19;20014;-72
2023/11/15 15:23:26;;;;;;;4.43;1.23;;;10.20;99.90;;;;;;7484577;19;20029;-73
2023/11/15 15:25:58;;;;;;;2.73;1.00;;;10.20;99.90;;;;;;7482790;19;20060;-70
2023/11/15 15:28:31;;;;;;;3.55;1.45;;;10.00;99.90;;;;;;7482272;19;20292;-72
2023/11/15 15:31:06;;;;;;;9.55;1.77;;;9.90;99.90;;;;;;7434228;19;20014;-69
2023/11/15 15:33:39;;;;;;;4.57;1.52;;;9.80;99.90;;;;;;7478207;19;20014;-72
2023/11/15 15:36:12;;;;;;;5.57;1.73;;;9.70;99.90;;;;;;7497235;19;20015;-71
2023/11/15 15:38:45;;;;;;;;;;;9.60;99.90;;;;;;7543417;19;20086;-70
2023/11/15 15:41:22;;;;;;;8.00;1.60;;;9.70;99.90;;;;;;7504988;19;19918;-70
2023/11/15 15:43:54;;;;;;;9.65;1.65;;;9.50;99.90;;;;;;7472428;19;20026;-70
2023/11/15 15:46:32;;;;;;;6.75;1.63;;;9.50;99.90;;;;;;7464247;19;21884;-70
2023/11/15 15:49:05;;;;;;;7.50;2.00;;;9.50;99.90;;;;;;7479791;19;20486;-71
2023/11/15 15:51:38;;;;;;;3.72;1.38;;;9.50;99.90;;;;;;7529088;19;20022;-71
2023/11/15 15:54:11;;;;;;;4.38;1.60;;;9.40;99.90;;;;;;7473771;19;20023;-70
2023/11/15 15:56:43;;;;;;;6.60;1.93;;;9.40;99.90;;;;;;7488221;19;20564;-71
2023/11/15 15:59:16;;;;;;;6.07;1.90;;;9.40;99.90;;;;;;7527523;19;20010;-72
2023/11/15 16:01:48;;;;;;;6.03;2.00;;;9.30;99.90;;;;;;7426396;19;20018;-72
2023/11/15 16:04:21;;;;;;;7.88;1.58;;;9.40;99.90;;;;;;7445739;19;20010;-68
2023/11/15 16:06:54;;;;;;;6.00;2.00;;;9.40;99.90;;;;;;7503127;19;20469;-69
2023/11/15 16:09:27;;;;;;;4.60;1.95;;;9.20;99.90;;;;;;7478818;19;20068;-70
2023/11/15 16:12:00;;;;;;;4.03;2.20;;;9.10;99.90;;;;;;7524126;19;20026;-68
2023/11/15 16:14:32;;;;;;;6.72;2.03;;;9.10;99.90;;;;;;7478148;19;20021;-69
2023/11/15 16:17:05;;;;;;;6.97;2.30;;;9.10;99.90;;;;;;7512564;19;20025;-70
2023/11/15 16:19:37;;;;;;;7.63;1.57;;;9.00;99.90;;;;;;7491233;19;20033;-68
2023/11/15 16:22:10;;;;;;;4.93;1.75;;;9.10;99.90;;;;;;7514962;19;20014;-68
2023/11/15 16:24:43;;;;;;;5.60;2.92;;;9.00;99.90;;;;;;7510504;19;21099;-68
2023/11/15 16:27:16;;;;;;;4.05;1.65;;;9.00;99.90;;;;;;7468002;19;20014;-70
2023/11/15 16:29:56;;;;;;;7.25;1.75;;;9.10;99.90;;;;;;7487881;19;20041;-68
2023/11/15 16:32:29;;;;;;;5.50;1.50;;;9.10;99.90;;;;;;7496883;19;20370;-70
2023/11/15 16:35:03;;;;;;;5.25;1.33;;;9.00;99.90;;;;;;7451733;19;20017;-68
2023/11/15 16:37:37;;;;;;;7.13;1.55;;;9.10;99.90;;;;;;7456079;19;20029;-70
2023/11/15 16:40:15;;;;;;;3.00;1.08;;;9.00;99.90;;;;;;7504599;19;20018;-68
2023/11/15 16:42:48;;;;;;;6.18;1.65;;;9.00;99.90;;;;;;7497574;19;20180;-69
2023/11/15 16:45:24;;;;;;;5.15;1.40;;;8.90;99.90;;;;;;7463131;19;20649;-68
2023/11/15 16:47:56;;;;;;;3.42;1.40;;;8.90;99.90;;;;;;7508006;19;20010;-68
2023/11/15 16:50:29;;;;;;;2.55;0.90;;;8.90;99.90;;;;;;7525243;19;20059;-68
2023/11/15 16:53:01;;;;;;;1.15;0.82;;;8.90;99.90;;;;;;7524224;19;20994;-68
2023/11/15 16:55:34;;;;;;;3.70;1.20;;;8.90;99.90;;;;;;7487324;19;20014;-68
2023/11/15 16:58:06;;;;;;;3.25;0.85;;;8.70;99.90;;;;;;7472740;19;20660;-70
2023/11/15 17:00:40;;;;;;;4.75;1.20;;;8.60;99.90;;;;;;7498762;19;20025;-68
2023/11/15 17:03:12;;;;;;;3.58;1.65;;;8.50;99.90;;;;;;7536671;19;20007;-69
2023/11/15 17:05:45;;;;;;;2.20;1.00;;;8.40;99.90;;;;;;7528160;19;20014;-69
2023/11/15 17:08:18;;;;;;;5.97;1.42;;;8.40;99.90;;;;;;7540186;19;20014;-71
2023/11/15 17:10:50;;;;;;;2.08;1.08;;;8.50;99.90;;;;;;7549040;19;20045;-70
2023/11/15 17:13:22;;;;;;;2.78;1.52;;;8.50;99.90;;;;;;7562144;19;20006;-68
2023/11/15 17:15:55;;;;;;;2.90;1.52;;;8.40;99.90;;;;;;7515843;19;20097;-70
2023/11/15 17:18:27;;;;;;;5.22;2.03;;;8.40;99.90;;;;;;7499288;19;20921;-70
2023/11/15 17:21:00;;;;;;;4.75;2.00;;;8.40;99.90;;;;;;7528684;19;20011;-70
2023/11/15 17:23:32;;;;;;;3.67;1.43;;;8.50;99.90;;;;;;7558045;19;20673;-69
2023/11/15 17:26:05;;;;;;;4.05;1.50;;;8.50;99.90;;;;;;7554010;19;20272;-69
2023/11/15 17:28:41;;;;;;;2.13;1.00;;;8.40;99.90;;;;;;7525752;19;20032;-70
2023/11/15 17:31:16;;;;;;;4.78;1.80;;;8.50;99.90;;;;;;7531206;19;20010;-68
2023/11/15 17:33:52;;;;;;;5.47;1.40;;;8.50;99.90;;;;;;7495720;19;20043;-70
2023/11/15 17:36:28;;;;;;;4.35;2.42;;;8.50;99.90;;;;;;7499899;19;20017;-69
2023/11/15 17:39:01;;;;;;;4.75;1.20;;;8.40;99.90;;;;;;7501201;19;20969;-68
2023/11/15 17:41:33;;;;;;;6.00;1.92;;;8.40;99.90;;;;;;7555707;19;20022;-69
2023/11/15 17:44:08;;;;;;;2.25;1.30;;;8.40;99.90;;;;;;7539400;19;20021;-69
2023/11/15 17:46:45;;;;;;;3.85;1.60;;;8.40;99.90;;;;;;7515109;19;20144;-70
2023/11/15 17:49:18;;;;;;;5.85;1.75;;;8.40;99.90;;;;;;7504594;19;20018;-70
2023/11/15 17:51:50;;;;;;;7.72;1.90;;;8.30;99.90;;;;;;7513804;19;20019;-70
2023/11/15 17:54:22;;;;;;;3.03;1.70;;;8.30;99.90;;;;;;7522275;19;20017;-69
2023/11/15 17:56:56;;;;;;;6.65;2.00;;;8.30;99.90;;;;;;7503864;19;21352;-69
2023/11/15 17:59:29;;;;;;;4.38;1.60;;;8.30;99.90;;;;;;7528706;19;20019;-69
2023/11/15 18:02:01;;;;;;;6.40;2.40;;;8.20;99.90;;;;;;7507389;19;20018;-70
2023/11/15 18:04:35;;;;;;;4.03;2.13;;;8.20;99.90;;;;;;7500601;19;20025;-67
2023/11/15 18:07:08;;;;;;;7.18;3.08;;;8.20;99.90;;;;;;7510727;19;20023;-68
2023/11/15 18:09:40;;;;;;;5.67;2.33;;;8.20;99.90;;;;;;7472934;19;20022;-68
2023/11/15 18:12:13;;;;;;;6.32;2.90;;;8.10;99.90;;;;;;7526099;19;20066;-69
2023/11/15 18:14:45;;;;;;;10.00;3.40;;;8.10;99.90;;;;;;7476608;19;20664;-69
2023/11/15 18:17:18;;;;;;;6.30;1.98;;;8.10;99.90;;;;;;7491944;19;20018;-69
2023/11/15 18:19:51;;;;;;;4.82;1.45;;;8.00;99.90;;;;;;7506509;19;20007;-68
2023/11/15 18:22:25;;;;;;;3.67;2.47;;;8.00;99.90;;;;;;7519834;19;20018;-71
2023/11/15 18:24:58;;;;;;;2.58;1.80;;;7.90;99.90;;;;;;7510884;19;20011;-68
2023/11/15 18:27:33;;;;;;;3.38;2.40;;;7.90;99.90;;;;;;7504829;19;21099;-68
2023/11/15 18:30:07;;;;;;;9.15;5.43;;;7.90;99.90;;;;;;7508267;19;20021;-69
2023/11/15 18:32:51;;;;;;;4.32;2.20;;;7.90;99.90;;;;;;7509923;19;21088;-69
2023/11/15 18:35:24;;;;;;;4.78;3.13;;;7.90;99.90;;;;;;7523218;19;20846;-68
2023/11/15 18:37:57;;;;;;;10.88;2.67;;;7.90;99.90;;;;;;7529019;19;21757;-69
2023/11/15 18:40:31;;;;;;;7.90;2.10;;;7.90;99.90;;;;;;7503807;19;20798;-69
2023/11/15 18:43:05;;;;;;;6.68;2.30;;;8.00;99.90;;;;;;7519934;19;20019;-69
2023/11/15 18:45:39;;;;;;;8.73;2.95;;;8.00;99.90;;;;;;7515134;19;21167;-70
2023/11/15 18:48:11;;;;;;;7.28;2.22;;;8.00;99.90;;;;;;7510921;19;20015;-68
2023/11/15 18:50:44;;;;;;;4.72;2.20;;;8.00;99.90;;;;;;7533923;19;20790;-68
2023/11/15 18:53:16;;;;;;;28.90;15.07;;;7.90;99.90;;;;;;7530084;19;20006;-69
2023/11/15 18:55:49;;;;;;;6.07;2.92;;;7.90;99.90;;;;;;7519349;19;20025;-69
2023/11/15 18:58:21;;;;;;;3.88;1.55;;;7.80;99.90;;;;;;7557046;19;20386;-68
2023/11/15 19:00:54;;;;;;;5.60;2.10;;;7.90;99.90;;;;;;7506766;19;20014;-69
2023/11/15 19:03:26;;;;;;;6.20;1.67;;;7.90;99.90;;;;;;7512249;19;20019;-68
2023/11/15 19:05:59;;;;;;;4.70;2.00;;;8.00;99.90;;;;;;7524950;19;20018;-70
2023/11/15 19:08:32;;;;;;;4.38;1.92;;;7.80;99.90;;;;;;7552481;19;20311;-72
2023/11/15 19:11:05;;;;;;;4.30;1.88;;;7.80;99.90;;;;;;7554967;19;20621;-68
2023/11/15 19:13:40;;;;;;;3.80;1.67;;;7.80;99.90;;;;;;7460755;19;20029;-68
2023/11/15 19:16:18;;;;;;;3.97;1.80;;;7.90;99.90;;;;;;7471010;19;21766;-69
2023/11/15 19:18:51;;;;;;;15.98;5.70;;;7.80;99.90;;;;;;7483700;19;20647;-68
2023/11/15 19:21:23;;;;;;;4.53;2.47;;;7.80;99.90;;;;;;7530349;19;20082;-68
2023/11/15 19:23:56;;;;;;;4.13;1.90;;;7.80;99.90;;;;;;7513508;19;20362;-69
2023/11/15 19:26:30;;;;;;;6.22;1.95;;;7.90;99.90;;;;;;7482263;19;21295;-70
2023/11/15 19:29:04;;;;;;;4.32;1.85;;;7.90;99.90;;;;;;7494775;19;20014;-69
2023/11/15 19:31:37;;;;;;;5.30;1.75;;;7.90;99.90;;;;;;7474320;19;20040;-68
2023/11/15 19:34:12;;;;;;;;;;;7.90;99.90;;;;;;7496861;19;20025;-70
2023/11/15 19:36:45;;;;;;;3.25;2.03;;;7.90;99.90;;;;;;7550973;19;20558;-69
2023/11/15 19:39:17;;;;;;;2.90;1.73;;;8.00;99.90;;;;;;7547216;19;20625;-68
2023/11/15 19:41:49;;;;;;;4.25;1.70;;;8.00;99.90;;;;;;7517280;19;20333;-68
2023/11/15 19:44:28;;;;;;;3.22;2.08;;;7.90;99.90;;;;;;7535946;19;20026;-69
2023/11/15 19:47:01;;;;;;;4.82;1.70;;;7.90;99.90;;;;;;7497459;19;20014;-68
2023/11/15 19:49:33;;;;;;;6.13;1.80;;;7.90;99.90;;;;;;7503625;19;20491;-68
2023/11/15 19:52:09;;;;;;;5.38;2.58;;;7.90;99.90;;;;;;7548266;19;20007;-70
2023/11/15 19:54:42;;;;;;;7.13;3.05;;;7.90;99.90;;;;;;7513664;19;20017;-69
2023/11/15 19:57:15;;;;;;;7.57;2.67;;;7.90;99.90;;;;;;7499831;19;20018;-69
2023/11/15 19:59:48;;;;;;;5.10;2.28;;;8.00;99.90;;;;;;7521475;19;20026;-68
2023/11/15 20:02:20;;;;;;;11.80;4.85;;;8.00;99.90;;;;;;7502974;19;20666;-68
2023/11/15 20:04:56;;;;;;;5.20;2.15;;;8.00;99.90;;;;;;7526929;19;20605;-68
2023/11/15 20:07:30;;;;;;;7.37;2.70;;;8.10;99.90;;;;;;7523561;19;20030;-70
2023/11/15 20:10:03;;;;;;;5.90;2.67;;;8.00;99.90;;;;;;7493108;19;20022;-70
2023/11/15 20:12:39;;;;;;;9.10;3.00;;;7.90;99.90;;;;;;7492810;19;20018;-70
2023/11/15 20:15:15;;;;;;;4.38;1.52;;;7.90;99.90;;;;;;7498044;19;21553;-68
2023/11/15 20:17:47;;;;;;;3.95;2.38;;;7.90;99.90;;;;;;7500686;19;20462;-69
2023/11/15 20:20:22;;;;;;;8.40;2.58;;;7.80;99.90;;;;;;7552442;19;20945;-70
2023/11/15 20:22:55;;;;;;;7.70;2.22;;;7.90;99.90;;;;;;7534288;19;20017;-69
2023/11/15 20:25:27;;;;;;;3.75;1.52;;;7.80;99.90;;;;;;7505606;19;20018;-71
2023/11/15 20:28:00;;;;;;;5.87;2.20;;;7.90;99.90;;;;;;7518905;19;20014;-69
2023/11/15 20:30:32;;;;;;;8.05;3.30;;;7.90;99.90;;;;;;7504092;19;20022;-70
2023/11/15 20:33:05;;;;;;;10.60;5.20;;;7.80;99.90;;;;;;7525477;19;20017;-68
2023/11/15 20:35:38;;;;;;;14.05;3.78;;;7.80;99.90;;;;;;7538043;19;21819;-68
2023/11/15 20:38:10;;;;;;;4.83;2.87;;;7.70;99.90;;;;;;7515948;19;20025;-69
2023/11/15 20:40:42;;;;;;;5.95;1.95;;;7.70;99.90;;;;;;7524429;19;20029;-68
2023/11/15 20:43:16;;;;;;;8.27;2.30;;;7.70;99.90;;;;;;7557993;19;20642;-70
2023/11/15 20:45:48;;;;;;;7.15;2.40;;;7.70;99.90;;;;;;7515156;19;20021;-68
2023/11/15 20:48:40;;;;;;;3.60;2.25;;;7.80;99.90;;;;;;7527519;19;20010;-68
2023/11/15 20:51:13;;;;;;;4.85;2.00;;;7.70;99.90;;;;;;7547686;19;21523;-70
2023/11/15 20:53:45;;;;;;;4.18;1.80;;;7.70;99.90;;;;;;7532124;19;20069;-68
2023/11/15 20:56:18;;;;;;;6.90;1.92;;;7.80;99.90;;;;;;7513535;19;21717;-70
2023/11/15 20:58:50;;;;;;;8.77;3.97;;;7.70;99.90;;;;;;7532321;19;20103;-68
2023/11/15 21:01:22;;;;;;;4.05;1.80;;;7.70;99.90;;;;;;7522692;19;20010;-69
2023/11/15 21:03:55;;;;;;;4.90;2.00;;;7.70;99.90;;;;;;7524657;19;20057;-69
2023/11/15 21:06:28;;;;;;;5.63;1.50;;;7.80;99.90;;;;;;7555513;19;20010;-70
2023/11/15 21:09:03;;;;;;;10.60;2.17;;;7.80;99.90;;;;;;7496154;19;20023;-70
2023/11/15 21:11:38;;;;;;;8.52;2.67;;;7.70;99.90;;;;;;7528718;19;20018;-69
2023/11/15 21:14:11;;;;;;;2.72;1.75;;;7.70;99.90;;;;;;7534448;19;20014;-70
2023/11/15 21:16:44;;;;;;;3.50;2.08;;;7.60;99.90;;;;;;7514349;19;20014;-70
2023/11/15 21:19:16;;;;;;;3.50;2.30;;;7.60;99.90;;;;;;7499476;19;20010;-70
2023/11/15 21:21:49;;;;;;;4.63;1.88;;;7.40;99.90;;;;;;7536430;19;20006;-71
2023/11/15 21:24:22;;;;;;;2.97;1.27;;;7.50;99.90;;;;;;7546580;19;20026;-70
2023/11/15 21:26:54;;;;;;;9.60;2.55;;;7.50;99.90;;;;;;7550248;19;20017;-69
2023/11/15 21:29:30;;;;;;;2.35;1.33;;;7.50;99.90;;;;;;7515333;19;20018;-69
2023/11/15 21:32:09;;;;;;;6.50;2.13;;;7.50;99.90;;;;;;7518397;19;20015;-70
2023/11/15 21:34:43;;;;;;;5.13;2.10;;;7.40;99.90;;;;;;7513173;19;20420;-71
2023/11/15 21:37:16;;;;;;;7.35;2.30;;;7.40;99.90;;;;;;7520170;19;21319;-71
2023/11/15 21:39:50;;;;;;;4.82;2.28;;;7.30;99.90;;;;;;7528977;19;20014;-69
2023/11/15 21:42:23;;;;;;;5.25;2.22;;;7.30;99.90;;;;;;7517705;19;20026;-71
2023/11/15 21:44:55;;;;;;;4.85;2.30;;;7.30;99.90;;;;;;7520279;19;20761;-71
2023/11/15 21:47:29;;;;;;;2.47;1.60;;;7.20;99.90;;;;;;7508114;19;20015;-69
2023/11/15 21:50:01;;;;;;;3.92;2.17;;;7.20;99.90;;;;;;7513656;19;21295;-69
2023/11/15 21:52:37;;;;;;;5.25;2.63;;;7.10;99.90;;;;;;7489230;19;20750;-69
2023/11/15 21:55:10;;;;;;;8.80;2.13;;;7.10;99.90;;;;;;7516945;19;20519;-70
2023/11/15 21:57:45;;;;;;;3.40;1.92;;;7.10;99.90;;;;;;7591271;19;20020;-71
2023/11/15 22:00:21;;;;;;;3.03;2.25;;;7.10;99.90;;;;;;7620038;19;20021;-69
2023/11/15 22:02:57;;;;;;;7.18;2.50;;;7.10;99.90;;;;;;7597608;19;20014;-69
2023/11/15 22:05:31;;;;;;;5.15;2.30;;;7.00;99.90;;;;;;7624952;19;20029;-70
2023/11/15 22:08:05;;;;;;;10.95;2.22;;;7.00;99.90;;;;;;7622613;19;20019;-70
2023/11/15 22:10:42;;;;;;;4.32;2.45;;;6.90;99.90;;;;;;7626533;19;20010;-69
2023/11/15 22:13:19;;;;;;;5.55;2.20;;;6.90;99.90;;;;;;7628712;19;20815;-71
2023/11/15 22:15:53;;;;;;;5.20;2.25;;;6.80;99.90;;;;;;7559434;19;20010;-69
2023/11/15 22:18:28;;;;;;;4.60;2.17;;;6.80;99.90;;;;;;7537105;19;20014;-68
2023/11/15 22:21:01;;;;;;;9.60;2.17;;;6.80;99.90;;;;;;7560960;19;20014;-69
2023/11/15 22:23:33;;;;;;;4.13;1.87;;;6.90;99.90;;;;;;7529407;19;20043;-69
2023/11/15 22:26:06;;;;;;;4.70;2.22;;;6.80;99.90;;;;;;7498979;19;20023;-70
2023/11/15 22:28:38;;;;;;;4.80;2.28;;;6.70;99.90;;;;;;7548898;19;20014;-69
2023/11/15 22:31:12;;;;;;;11.68;2.25;;;6.70;99.90;;;;;;7521417;19;20105;-69
2023/11/15 22:33:50;;;;;;;5.85;2.60;;;6.70;99.90;;;;;;7537360;19;20011;-70
2023/11/15 22:36:22;;;;;;;5.97;2.45;;;6.70;99.90;;;;;;7558503;19;20014;-70
2023/11/15 22:38:54;;;;;;;5.85;2.25;;;6.60;99.90;;;;;;7569625;19;20029;-69
2023/11/15 22:41:28;;;;;;;7.53;2.10;;;6.60;99.90;;;;;;7542592;19;20014;-70
2023/11/15 22:44:01;;;;;;;8.27;2.30;;;6.70;99.90;;;;;;7522281;19;20987;-69
2023/11/15 22:46:34;;;;;;;6.82;2.40;;;6.60;99.90;;;;;;7530027;19;20010;-69
2023/11/15 22:49:06;;;;;;;4.05;2.20;;;6.60;99.90;;;;;;7521044;19;20015;-70
2023/11/15 22:51:39;;;;;;;4.45;1.95;;;6.60;99.90;;;;;;7554196;19;22082;-69
2023/11/15 22:54:11;;;;;;;5.63;2.33;;;6.60;99.90;;;;;;7556414;19;20510;-70
2023/11/15 22:56:44;;;;;;;6.90;2.25;;;6.60;99.90;;;;;;7575720;19;22184;-69
2023/11/15 22:59:18;;;;;;;5.82;2.28;;;6.60;99.90;;;;;;7571721;19;20464;-70
2023/11/15 23:01:50;;;;;;;8.13;2.13;;;6.50;99.90;;;;;;7538471;19;20026;-70
2023/11/15 23:04:22;;;;;;;3.80;1.88;;;6.50;99.90;;;;;;7568145;19;20597;-70
2023/11/15 23:06:57;;;;;;;3.75;2.30;;;6.50;99.90;;;;;;7574645;19;20948;-70
2023/11/15 23:09:30;;;;;;;7.03;2.13;;;6.40;99.90;;;;;;7540063;19;20018;-69
2023/11/15 23:12:02;;;;;;;10.43;2.53;;;6.50;99.90;;;;;;7549322;19;20611;-71
2023/11/15 23:14:35;;;;;;;4.57;1.98;;;6.40;99.90;;;;;;7545771;19;20653;-70
2023/11/15 23:17:08;;;;;;;5.22;2.15;;;6.40;99.90;;;;;;7545266;19;20018;-70
2023/11/15 23:19:40;;;;;;;6.65;2.35;;;6.40;99.90;;;;;;7580166;19;20382;-70
2023/11/15 23:22:12;;;;;;;5.50;2.10;;;6.40;99.90;;;;;;7579302;19;20084;-69
2023/11/15 23:24:45;;;;;;;10.35;3.28;;;6.50;99.90;;;;;;7568702;19;20800;-69
2023/11/15 23:27:17;;;;;;;10.68;2.17;;;6.40;99.90;;;;;;7559657;19;20015;-69
2023/11/15 23:29:49;;;;;;;5.22;2.30;;;6.50;99.90;;;;;;7545510;19;21071;-69
2023/11/15 23:32:22;;;;;;;5.88;2.38;;;6.50;99.90;;;;;;7552681;19;20015;-69
2023/11/15 23:34:55;;;;;;;8.80;2.33;;;6.50;99.90;;;;;;7564716;19;20046;-68
2023/11/15 23:37:27;;;;;;;6.60;2.20;;;6.40;99.90;;;;;;7545119;19;20293;-69
2023/11/15 23:39:59;;;;;;;6.43;2.30;;;6.40;99.90;;;;;;7555001;19;20559;-70